createdAt,value
2022-07-29T00:01:19.677Z,98493.22
2022-07-29T00:03:47.995Z,98506.47
2022-07-29T00:06:16.344Z,98511.94
2022-07-29T00:08:44.350Z,98505.13
2022-07-29T00:11:12.383Z,98493.41
2022-07-29T00:13:40.417Z,98500.41
2022-07-29T00:16:08.495Z,98498.78
2022-07-29T00:18:37.905Z,98502.38
2022-07-29T00:21:05.962Z,98505.13
2022-07-29T00:23:36.828Z,98507.22
2022-07-29T00:26:05.209Z,98500.13
2022-07-29T00:28:33.224Z,98491.38
2022-07-29T00:31:01.356Z,98502.84
2022-07-29T00:33:31.015Z,98496.75
2022-07-29T00:35:59.453Z,98495.25
2022-07-29T00:38:27.448Z,98478.44
2022-07-29T00:40:55.517Z,98489.63
2022-07-29T00:43:23.635Z,98493.16
2022-07-29T00:45:51.651Z,98486.31
2022-07-29T00:48:19.631Z,98495.56
2022-07-29T00:50:47.685Z,98484.97
2022-07-29T00:53:17.120Z,98490.41
2022-07-29T00:55:45.329Z,98479.19
2022-07-29T00:58:15.035Z,98491.41
2022-07-29T01:00:44.893Z,98493.69
2022-07-29T01:03:13.793Z,98499.91
2022-07-29T01:05:50.289Z,98497.84
2022-07-29T01:08:22.131Z,98496.09
2022-07-29T01:10:51.395Z,98496.22
2022-07-29T01:13:20.183Z,98496.22
2022-07-29T01:15:59.322Z,98488.13
2022-07-29T01:18:34.085Z,98493.22
2022-07-29T01:21:27.313Z,98489.03
2022-07-29T01:24:09.935Z,98485.13
2022-07-29T01:26:45.057Z,98486.94
2022-07-29T01:29:28.961Z,98485.78
2022-07-29T01:32:27.584Z,98488.13
2022-07-29T01:35:00.950Z,98490.44
2022-07-29T01:37:34.490Z,98490.81
2022-07-29T01:40:05.837Z,98484.16
2022-07-29T01:42:38.798Z,98485.84
2022-07-29T01:45:20.819Z,98484.16
2022-07-29T01:47:56.593Z,98484.81
2022-07-29T01:50:33.648Z,98482.88
2022-07-29T01:53:04.548Z,98481.47
2022-07-29T01:55:37.567Z,98498.00
2022-07-29T01:58:07.981Z,98487.09
2022-07-29T02:00:38.400Z,98488.97
2022-07-29T02:03:11.072Z,98474.84
2022-07-29T02:05:41.350Z,98491.38
2022-07-29T02:08:10.490Z,98482.13
2022-07-29T02:10:40.988Z,98485.19
2022-07-29T02:13:10.934Z,98476.16
2022-07-29T02:15:43.944Z,98483.59
2022-07-29T02:18:16.454Z,98486.44
2022-07-29T02:20:48.088Z,98484.16
2022-07-29T02:23:22.656Z,98488.72
2022-07-29T02:25:53.712Z,98493.03
2022-07-29T02:28:24.808Z,98495.69
2022-07-29T02:30:57.723Z,98483.72
2022-07-29T02:33:27.460Z,98489.91
2022-07-29T02:35:57.222Z,98496.53
2022-07-29T02:38:44.156Z,98500.03
2022-07-29T02:41:15.998Z,98493.75
2022-07-29T02:43:45.768Z,98491.41
2022-07-29T02:46:29.280Z,98493.75
2022-07-29T02:49:01.909Z,98487.81
2022-07-29T02:51:44.793Z,98495.53
2022-07-29T02:54:29.070Z,98492.03
2022-07-29T02:56:59.179Z,98489.06
2022-07-29T02:59:29.756Z,98485.84
2022-07-29T03:02:02.044Z,98484.00
2022-07-29T03:04:32.995Z,98470.13
2022-07-29T03:07:02.738Z,98481.31
2022-07-29T03:09:31.845Z,98488.78
2022-07-29T03:12:00.288Z,98488.78
2022-07-29T03:14:29.122Z,98486.41
2022-07-29T03:16:59.510Z,98485.63
2022-07-29T03:19:28.994Z,98487.09
2022-07-29T03:21:59.272Z,98474.69
2022-07-29T03:24:32.083Z,98472.66
2022-07-29T03:27:00.780Z,98470.31
2022-07-29T03:29:33.633Z,98483.72
2022-07-29T03:32:07.178Z,98480.34
2022-07-29T03:34:36.154Z,98484.59
2022-07-29T03:37:04.223Z,98488.31
2022-07-29T03:39:37.317Z,98490.03
2022-07-29T03:42:09.030Z,98487.66
2022-07-29T03:44:38.407Z,98495.22
2022-07-29T03:47:09.709Z,98485.81
2022-07-29T03:49:39.267Z,98484.16
2022-07-29T03:52:07.954Z,98480.09
2022-07-29T03:54:36.250Z,98488.50
2022-07-29T03:57:05.796Z,98492.41
2022-07-29T03:59:35.935Z,98496.75
2022-07-29T04:02:05.759Z,98492.88
2022-07-29T04:04:37.201Z,98484.03
2022-07-29T04:07:05.768Z,98493.91
2022-07-29T04:09:34.210Z,98490.34
2022-07-29T04:12:04.312Z,98487.34
2022-07-29T04:14:34.467Z,98491.69
2022-07-29T04:17:02.523Z,98486.47
2022-07-29T04:19:30.513Z,98489.50
2022-07-29T04:22:00.735Z,98495.88
2022-07-29T04:24:29.413Z,98493.34
2022-07-29T04:26:57.564Z,98492.81
2022-07-29T04:29:25.551Z,98501.78
2022-07-29T04:31:53.608Z,98497.41
2022-07-29T04:34:21.604Z,98499.41
2022-07-29T04:36:49.655Z,98499.63
2022-07-29T04:39:22.966Z,98497.28
2022-07-29T04:41:52.577Z,98501.94
2022-07-29T04:44:28.746Z,98502.56
2022-07-29T04:46:58.236Z,98505.28
2022-07-29T04:49:27.114Z,98508.38
2022-07-29T04:51:55.558Z,98512.75
2022-07-29T04:54:25.634Z,98516.22
2022-07-29T04:56:54.467Z,98512.38
2022-07-29T04:59:22.474Z,98515.69
2022-07-29T05:01:50.603Z,98523.50
2022-07-29T05:04:19.409Z,98521.94
2022-07-29T05:06:48.132Z,98527.81
2022-07-29T05:09:16.259Z,98520.78
2022-07-29T05:11:45.682Z,98522.28
2022-07-29T05:14:14.094Z,98533.22
2022-07-29T05:16:43.063Z,98539.94
2022-07-29T05:19:14.397Z,98546.28
2022-07-29T05:21:43.157Z,98534.84
2022-07-29T05:24:11.154Z,98545.47
2022-07-29T05:26:39.819Z,98541.94
2022-07-29T05:29:43.889Z,98556.13
2022-07-29T05:31:57.324Z,98558.72
2022-07-29T05:34:26.158Z,98546.25
2022-07-29T05:36:54.482Z,98567.38
2022-07-29T05:39:22.810Z,98556.63
2022-07-29T05:42:11.750Z,98542.59
2022-07-29T05:44:41.454Z,98563.75
2022-07-29T05:47:09.826Z,98561.22
2022-07-29T05:49:38.083Z,98565.38
2022-07-29T05:52:07.084Z,98556.34
2022-07-29T05:54:35.116Z,98561.88
2022-07-29T05:57:03.548Z,98575.56
2022-07-29T05:59:31.617Z,98580.31
2022-07-29T06:02:01.148Z,98568.25
2022-07-29T06:04:29.323Z,98589.53
2022-07-29T06:06:57.440Z,98583.13
2022-07-29T06:09:25.617Z,98587.88
2022-07-29T06:11:53.673Z,98589.16
2022-07-29T06:14:21.894Z,98595.59
2022-07-29T06:16:49.999Z,98585.53
2022-07-29T06:19:19.512Z,98593.97
2022-07-29T06:21:49.322Z,98591.69
2022-07-29T06:24:18.595Z,98592.56
2022-07-29T06:26:47.158Z,98600.44
2022-07-29T06:29:15.145Z,98600.44
2022-07-29T06:31:43.185Z,98605.53
2022-07-29T06:34:11.218Z,98606.69
2022-07-29T06:36:41.000Z,98604.59
2022-07-29T06:39:11.688Z,98601.94
2022-07-29T06:41:40.340Z,98602.84
2022-07-29T06:44:08.336Z,98608.72
2022-07-29T06:46:36.457Z,98596.09
2022-07-29T06:49:04.834Z,98617.09
2022-07-29T06:51:32.949Z,98620.19
2022-07-29T06:54:03.751Z,98615.66
2022-07-29T06:56:38.897Z,98622.31
2022-07-29T06:59:08.745Z,98633.34
2022-07-29T07:01:43.132Z,98630.72
2022-07-29T07:04:12.136Z,98626.22
2022-07-29T07:09:09.359Z,98635.69
2022-07-29T07:11:37.545Z,98639.38
2022-07-29T07:14:05.540Z,98647.16
2022-07-29T07:16:33.866Z,98635.75
2022-07-29T07:19:02.353Z,98650.72
2022-07-29T07:21:31.074Z,98668.22
2022-07-29T07:23:59.719Z,98665.19
2022-07-29T07:26:29.614Z,98665.44
2022-07-29T07:28:57.633Z,98661.16
2022-07-29T07:31:25.849Z,98664.69
2022-07-29T07:33:54.574Z,98663.00
2022-07-29T07:36:22.888Z,98662.28
2022-07-29T07:38:51.267Z,98663.13
2022-07-29T07:41:19.477Z,98664.88
2022-07-29T07:43:48.938Z,98663.56
2022-07-29T07:46:17.455Z,98655.47
2022-07-29T07:48:45.912Z,98655.69
2022-07-29T07:51:14.165Z,98654.00
2022-07-29T07:53:42.293Z,98645.13
2022-07-29T07:56:12.262Z,98652.88
2022-07-29T07:58:41.111Z,98642.91
2022-07-29T08:01:10.989Z,98646.47
2022-07-29T08:03:39.973Z,98644.06
2022-07-29T08:06:08.644Z,98636.34
2022-07-29T08:08:36.694Z,98636.34
2022-07-29T08:11:09.145Z,98645.75
2022-07-29T08:13:39.462Z,98634.50
2022-07-29T08:16:14.089Z,98637.81
2022-07-29T08:18:45.100Z,98638.44
2022-07-29T08:21:15.010Z,98639.72
2022-07-29T08:23:54.381Z,98649.69
2022-07-29T08:26:27.297Z,98649.06
2022-07-29T08:28:55.324Z,98653.28
2022-07-29T08:31:23.447Z,98647.41
2022-07-29T08:33:52.955Z,98649.69
2022-07-29T08:36:22.079Z,98646.19
2022-07-29T08:38:50.729Z,98654.47
2022-07-29T08:41:20.165Z,98655.09
2022-07-29T08:43:48.584Z,98661.41
2022-07-29T08:46:16.693Z,98656.34
2022-07-29T08:48:45.632Z,98662.91
2022-07-29T08:51:18.051Z,98672.09
2022-07-29T08:53:48.451Z,98667.06
2022-07-29T08:56:17.898Z,98664.97
2022-07-29T08:58:46.858Z,98660.59
2022-07-29T09:01:34.995Z,98657.88
2022-07-29T09:04:07.878Z,98658.28
2022-07-29T09:06:43.287Z,98662.25
2022-07-29T09:09:11.555Z,98653.91
2022-07-29T09:11:40.081Z,98647.03
2022-07-29T09:14:08.842Z,98664.16
2022-07-29T09:16:53.541Z,98663.75
2022-07-29T09:19:27.252Z,98656.59
2022-07-29T09:22:00.535Z,98654.25
2022-07-29T09:24:42.715Z,98655.06
2022-07-29T09:27:23.324Z,98665.09
2022-07-29T09:30:00.114Z,98658.84
2022-07-29T09:32:29.354Z,98663.38
2022-07-29T09:35:17.037Z,98662.22
2022-07-29T09:37:47.338Z,98660.97
2022-07-29T09:40:18.278Z,98671.22
2022-07-29T09:42:47.482Z,98668.00
2022-07-29T09:45:27.972Z,98668.81
2022-07-29T09:47:58.729Z,98657.34
2022-07-29T09:50:37.832Z,98661.38
2022-07-29T09:53:07.590Z,98663.88
2022-07-29T09:55:48.105Z,98659.84
2022-07-29T09:58:21.061Z,98659.22
2022-07-29T10:00:51.002Z,98659.63
2022-07-29T10:03:20.469Z,98663.66
2022-07-29T10:06:05.629Z,98668.81
2022-07-29T10:08:35.108Z,98663.94
2022-07-29T10:11:13.551Z,98667.91
2022-07-29T10:13:45.339Z,98659.63
2022-07-29T10:16:14.531Z,98652.34
2022-07-29T10:18:44.595Z,98650.56
2022-07-29T10:21:35.673Z,98655.13
2022-07-29T10:24:03.358Z,98652.69
2022-07-29T10:26:32.559Z,98660.91
2022-07-29T10:29:00.680Z,98652.41
2022-07-29T10:31:42.895Z,98662.19
2022-07-29T10:34:24.363Z,98664.63
2022-07-29T10:37:03.893Z,98659.72
2022-07-29T10:39:51.813Z,98667.53
2022-07-29T10:42:33.402Z,98669.03
2022-07-29T10:45:04.407Z,98677.75
2022-07-29T10:47:35.059Z,98675.53
2022-07-29T10:50:17.256Z,98667.31
2022-07-29T10:52:58.686Z,98679.44
2022-07-29T10:55:37.778Z,98675.22
2022-07-29T11:01:37.021Z,98676.41
2022-07-29T11:04:07.102Z,98679.56
2022-07-29T11:07:09.904Z,98678.97
2022-07-29T11:09:38.667Z,98674.34
2022-07-29T11:12:47.863Z,98690.72
2022-07-29T11:15:22.020Z,98689.09
2022-07-29T11:18:15.134Z,98684.13
2022-07-29T11:20:47.126Z,98669.84
2022-07-29T11:23:27.587Z,98688.63
2022-07-29T11:26:18.533Z,98686.53
2022-07-29T11:28:54.243Z,98692.00
2022-07-29T11:31:39.068Z,98682.25
2022-07-29T11:37:28.361Z,98686.81
2022-07-29T11:40:20.312Z,98687.81
2022-07-29T11:42:52.858Z,98690.53
2022-07-29T11:45:43.639Z,98675.09
2022-07-29T11:48:31.068Z,98684.78
2022-07-29T11:51:01.614Z,98692.19
2022-07-29T11:56:25.628Z,98686.69
2022-07-29T11:59:05.895Z,98692.50
2022-07-29T12:01:38.264Z,98694.16
2022-07-29T12:04:07.835Z,98699.50
2022-07-29T12:06:36.060Z,98708.19
2022-07-29T12:09:14.375Z,98702.09
2022-07-29T12:11:45.054Z,98701.13
2022-07-29T12:14:27.919Z,98703.91
2022-07-29T12:16:58.083Z,98694.41
2022-07-29T12:19:27.241Z,98704.56
2022-07-29T12:22:00.861Z,98704.22
2022-07-29T12:24:45.059Z,98701.13
2022-07-29T12:27:14.160Z,98701.22
2022-07-29T12:29:46.295Z,98708.41
2022-07-29T12:32:19.773Z,98704.69
2022-07-29T12:34:48.601Z,98703.94
2022-07-29T12:37:16.866Z,98708.09
2022-07-29T12:39:45.102Z,98708.91
2022-07-29T12:42:15.038Z,98716.41
2022-07-29T12:44:51.234Z,98718.19
2022-07-29T12:47:22.012Z,98715.28
2022-07-29T12:49:51.275Z,98715.72
2022-07-29T12:52:30.541Z,98712.41
2022-07-29T12:54:58.777Z,98710.47
2022-07-29T12:57:27.712Z,98696.44
2022-07-29T13:00:04.638Z,98699.81
2022-07-29T13:02:34.769Z,98708.59
2022-07-29T13:05:07.387Z,98700.97
2022-07-29T13:07:55.291Z,98703.94
2022-07-29T13:10:25.987Z,98685.38
2022-07-29T13:13:09.166Z,98693.69
2022-07-29T13:15:38.062Z,98709.75
2022-07-29T13:18:28.305Z,98703.94
2022-07-29T13:20:56.412Z,98712.13
2022-07-29T13:23:24.473Z,98707.97
2022-07-29T13:25:54.346Z,98719.88
2022-07-29T13:28:23.278Z,98722.63
2022-07-29T13:30:54.383Z,98722.00
2022-07-29T13:33:26.970Z,98720.13
2022-07-29T13:36:04.314Z,98719.47
2022-07-29T13:38:32.306Z,98723.00
2022-07-29T13:41:00.552Z,98725.88
2022-07-29T13:43:28.560Z,98726.09
2022-07-29T13:45:56.639Z,98726.59
2022-07-29T13:48:26.104Z,98718.16
2022-07-29T13:50:54.179Z,98722.41
2022-07-29T13:53:26.729Z,98722.84
2022-07-29T13:55:55.368Z,98715.50
2022-07-29T13:58:23.388Z,98717.78
2022-07-29T14:00:51.523Z,98703.63
2022-07-29T14:03:19.585Z,98710.88
2022-07-29T14:05:49.002Z,98707.97
2022-07-29T14:08:17.069Z,98710.94
2022-07-29T14:10:45.377Z,98713.03
2022-07-29T14:13:24.579Z,98713.25
2022-07-29T14:15:53.832Z,98717.81
2022-07-29T14:18:21.834Z,98715.13
2022-07-29T14:20:52.325Z,98705.31
2022-07-29T14:23:20.603Z,98711.94
2022-07-29T14:25:49.555Z,98706.72
2022-07-29T14:28:17.905Z,98687.47
2022-07-29T14:30:45.917Z,98699.91
2022-07-29T14:33:14.006Z,98702.25
2022-07-29T14:35:42.057Z,98714.38
2022-07-29T14:38:11.482Z,98707.44
2022-07-29T14:40:39.889Z,98714.25
2022-07-29T14:43:07.971Z,98715.78
2022-07-29T14:45:36.267Z,98715.00
2022-07-29T14:48:04.414Z,98721.81
2022-07-29T14:50:32.475Z,98710.91
2022-07-29T14:53:00.741Z,98718.56
2022-07-29T14:55:30.584Z,98715.03
2022-07-29T14:58:08.684Z,98710.00
2022-07-29T15:00:40.296Z,98732.75
2022-07-29T15:03:11.241Z,98722.81
2022-07-29T15:05:39.768Z,98718.69
2022-07-29T15:08:09.256Z,98726.34
2022-07-29T15:10:38.810Z,98733.81
2022-07-29T15:13:06.893Z,98723.81
2022-07-29T15:15:35.027Z,98719.47
2022-07-29T15:18:03.068Z,98730.88
2022-07-29T15:20:31.160Z,98724.56
2022-07-29T15:22:59.178Z,98716.22
2022-07-29T15:25:28.374Z,98718.84
2022-07-29T15:28:01.490Z,98733.03
2022-07-29T15:30:33.565Z,98721.34
2022-07-29T15:33:02.562Z,98725.44
2022-07-29T15:35:30.591Z,98726.69
2022-07-29T15:37:58.631Z,98719.38
2022-07-29T15:40:26.736Z,98713.25
2022-07-29T15:42:54.784Z,98722.50
2022-07-29T15:45:24.536Z,98719.69
2022-07-29T15:47:52.607Z,98720.50
2022-07-29T15:50:21.237Z,98715.63
2022-07-29T15:52:49.330Z,98721.53
2022-07-29T15:55:26.383Z,98706.28
2022-07-29T15:57:58.562Z,98710.59
2022-07-29T16:00:30.222Z,98705.97
2022-07-29T16:03:01.474Z,98700.66
2022-07-29T16:05:29.889Z,98695.94
2022-07-29T16:07:59.832Z,98701.97
2022-07-29T16:10:28.386Z,98696.03
2022-07-29T16:12:56.730Z,98696.53
2022-07-29T16:15:25.202Z,98696.78
2022-07-29T16:17:54.786Z,98690.06
2022-07-29T16:20:24.192Z,98678.28
2022-07-29T16:22:52.752Z,98684.78
2022-07-29T16:25:24.143Z,98675.88
2022-07-29T16:28:01.875Z,98686.13
2022-07-29T16:30:29.961Z,98687.25
2022-07-29T16:32:59.628Z,98683.34
2022-07-29T16:35:39.077Z,98686.34
2022-07-29T16:38:08.094Z,98686.53
2022-07-29T16:40:36.493Z,98678.28
2022-07-29T16:43:05.169Z,98686.81
2022-07-29T16:45:45.063Z,98675.50
2022-07-29T16:48:18.030Z,98683.75
2022-07-29T16:50:47.184Z,98669.75
2022-07-29T16:53:15.248Z,98669.00
2022-07-29T16:55:43.353Z,98674.28
2022-07-29T16:58:12.067Z,98678.09
2022-07-29T17:00:40.373Z,98672.63
2022-07-29T17:03:08.517Z,98666.25
2022-07-29T17:05:52.705Z,98678.69
2022-07-29T17:08:22.684Z,98681.31
2022-07-29T17:10:51.016Z,98677.19
2022-07-29T17:13:19.046Z,98681.69
2022-07-29T17:15:47.025Z,98671.31
2022-07-29T17:18:15.037Z,98690.00
2022-07-29T17:20:45.680Z,98689.31
2022-07-29T17:23:13.712Z,98688.16
2022-07-29T17:25:41.723Z,98684.75
2022-07-29T17:28:09.798Z,98681.31
2022-07-29T17:30:37.847Z,98690.63
2022-07-29T17:33:05.901Z,98697.28
2022-07-29T17:35:51.411Z,98684.56
2022-07-29T17:38:20.904Z,98684.72
2022-07-29T17:40:48.969Z,98691.56
2022-07-29T17:43:17.007Z,98679.34
2022-07-29T17:45:48.961Z,98693.44
2022-07-29T17:48:18.777Z,98697.47
2022-07-29T17:50:47.455Z,98685.81
2022-07-29T17:53:16.872Z,98699.84
2022-07-29T17:55:48.806Z,98687.94
2022-07-29T17:58:17.119Z,98687.97
2022-07-29T18:00:45.258Z,98699.06
2022-07-29T18:03:13.462Z,98691.09
2022-07-29T18:05:41.935Z,98691.56
2022-07-29T18:08:10.372Z,98685.72
2022-07-29T18:10:38.534Z,98690.31
2022-07-29T18:13:08.139Z,98693.09
2022-07-29T18:15:36.261Z,98691.25
2022-07-29T18:18:04.359Z,98693.31
2022-07-29T18:20:33.358Z,98689.16
2022-07-29T18:23:02.200Z,98693.75
2022-07-29T18:25:30.874Z,98687.72
2022-07-29T18:28:00.706Z,98695.69
2022-07-29T18:30:31.152Z,98698.03
2022-07-29T18:33:20.210Z,98701.56
2022-07-29T18:35:48.783Z,98702.00
2022-07-29T18:38:17.091Z,98705.34
2022-07-29T18:40:46.057Z,98700.13
2022-07-29T18:43:14.801Z,98715.63
2022-07-29T18:45:44.258Z,98689.53
2022-07-29T18:48:13.232Z,98710.84
2022-07-29T18:50:42.367Z,98698.97
2022-07-29T18:53:10.444Z,98696.47
2022-07-29T18:55:38.612Z,98705.69
2022-07-29T18:58:06.683Z,98712.34
2022-07-29T19:00:35.478Z,98709.03
2022-07-29T19:03:05.229Z,98716.13
2022-07-29T19:05:33.614Z,98719.28
2022-07-29T19:08:01.684Z,98724.09
2022-07-29T19:10:42.077Z,98719.31
2022-07-29T19:13:10.273Z,98727.06
2022-07-29T19:15:41.609Z,98728.09
2022-07-29T19:18:11.786Z,98729.97
2022-07-29T19:20:40.029Z,98728.72
2022-07-29T19:23:09.173Z,98727.25
2022-07-29T19:25:37.627Z,98737.88
2022-07-29T19:28:22.137Z,98738.72
2022-07-29T19:30:52.210Z,98741.63
2022-07-29T19:33:25.141Z,98746.88
2022-07-29T19:35:56.192Z,98751.66
2022-07-29T19:38:25.812Z,98749.31
2022-07-29T19:40:53.922Z,98764.38
2022-07-29T19:43:51.327Z,98764.16
2022-07-29T19:46:12.472Z,98759.13
2022-07-29T19:48:44.926Z,98775.00
2022-07-29T19:51:13.130Z,98773.53
2022-07-29T19:53:44.946Z,98762.25
2022-07-29T19:56:13.911Z,98774.97
2022-07-29T19:58:44.200Z,98781.03
2022-07-29T20:01:13.381Z,98768.94
2022-07-29T20:03:44.949Z,98780.59
2022-07-29T20:06:13.334Z,98778.69
2022-07-29T20:08:41.985Z,98784.97
2022-07-29T20:11:10.821Z,98790.13
2022-07-29T20:13:38.924Z,98794.94
2022-07-29T20:16:08.337Z,98785.53
2022-07-29T20:18:36.522Z,98786.78
2022-07-29T20:21:06.033Z,98790.22
2022-07-29T20:23:34.210Z,98791.44
2022-07-29T20:26:05.101Z,98792.03
2022-07-29T20:28:35.451Z,98798.09
2022-07-29T20:31:06.079Z,98795.63
2022-07-29T20:33:34.164Z,98797.06
2022-07-29T20:36:02.192Z,98798.69
2022-07-29T20:38:31.637Z,98792.22
2022-07-29T20:40:59.693Z,98790.94
2022-07-29T20:43:27.967Z,98803.75
2022-07-29T20:45:56.017Z,98794.56
2022-07-29T20:48:24.108Z,98799.84
2022-07-29T20:50:53.018Z,98804.00
2022-07-29T20:53:21.102Z,98797.28
2022-07-29T20:55:51.431Z,98804.94
2022-07-29T20:58:19.918Z,98800.75
2022-07-29T21:00:47.985Z,98801.34
2022-07-29T21:03:17.668Z,98802.38
2022-07-29T21:05:45.779Z,98799.19
2022-07-29T21:08:13.880Z,98795.16
2022-07-29T21:10:41.927Z,98795.84
2022-07-29T21:13:11.412Z,98798.09
2022-07-29T21:15:39.494Z,98798.84
2022-07-29T21:18:16.400Z,98798.94
2022-07-29T21:20:44.389Z,98807.16
2022-07-29T21:23:12.479Z,98796.59
2022-07-29T21:25:40.620Z,98800.63
2022-07-29T21:28:25.942Z,98807.53
2022-07-29T21:30:55.998Z,98800.28
2022-07-29T21:33:24.081Z,98811.69
2022-07-29T21:36:20.225Z,98806.75
2022-07-29T21:38:40.851Z,98815.69
2022-07-29T21:41:10.883Z,98813.28
2022-07-29T21:43:41.970Z,98826.69
2022-07-29T21:46:11.649Z,98816.28
2022-07-29T21:48:44.155Z,98819.53
2022-07-29T21:51:12.695Z,98822.69
2022-07-29T21:53:40.818Z,98825.63
2022-07-29T21:56:14.447Z,98814.44
2022-07-29T21:58:43.289Z,98822.56
2022-07-29T22:01:12.880Z,98830.06
2022-07-29T22:03:41.059Z,98826.69
2022-07-29T22:06:09.110Z,98825.34
2022-07-29T22:08:41.890Z,98839.22
2022-07-29T22:11:09.963Z,98839.56
2022-07-29T22:13:38.058Z,98839.38
2022-07-29T22:16:06.831Z,98845.09
2022-07-29T22:18:36.277Z,98839.28
2022-07-29T22:21:04.535Z,98840.31
2022-07-29T22:23:32.615Z,98846.09
2022-07-29T22:26:00.595Z,98838.22
2022-07-29T22:28:28.751Z,98848.75
2022-07-29T22:30:56.912Z,98846.06
2022-07-29T22:33:25.078Z,98853.81
2022-07-29T22:35:54.575Z,98836.47
2022-07-29T22:38:22.612Z,98860.22
2022-07-29T22:40:51.371Z,98856.31
2022-07-29T22:43:20.024Z,98860.22
2022-07-29T22:45:48.135Z,98858.00
2022-07-29T22:48:16.339Z,98856.84
2022-07-29T22:50:44.405Z,98854.22
2022-07-29T22:53:13.866Z,98856.56
2022-07-29T22:55:42.057Z,98864.41
2022-07-29T22:58:10.158Z,98866.03
2022-07-29T23:00:38.316Z,98863.81
2022-07-29T23:03:06.418Z,98872.84
2022-07-29T23:05:34.524Z,98871.22
2022-07-29T23:08:02.758Z,98867.22
2022-07-29T23:10:32.369Z,98880.03
2022-07-29T23:13:00.411Z,98867.22
2022-07-29T23:15:28.490Z,98876.66
2022-07-29T23:17:56.781Z,98883.75
2022-07-29T23:20:24.921Z,98869.47
2022-07-29T23:22:52.984Z,98885.41
2022-07-29T23:25:21.183Z,98887.75
2022-07-29T23:27:50.569Z,98889.63
2022-07-29T23:30:18.643Z,98884.59
2022-07-29T23:32:46.649Z,98888.13
2022-07-29T23:35:14.773Z,98888.16
2022-07-29T23:37:42.898Z,98884.63
2022-07-29T23:40:14.473Z,98892.78
2022-07-29T23:42:43.698Z,98896.31
2022-07-29T23:45:14.801Z,98901.88
2022-07-29T23:47:43.043Z,98899.69
2022-07-29T23:50:13.329Z,98889.72
2022-07-29T23:52:41.633Z,98902.09
2022-07-29T23:55:36.908Z,98895.34
2022-07-29T23:57:58.765Z,98892.13
